createdAt,value
2022-08-19T00:01:43.493Z,29.65
2022-08-19T00:04:12.711Z,29.70
2022-08-19T00:06:41.406Z,31.75
2022-08-19T00:09:12.441Z,32.38
2022-08-19T00:11:39.951Z,32.22
2022-08-19T00:14:10.687Z,33.70
2022-08-19T00:16:39.897Z,33.50
2022-08-19T00:19:08.014Z,33.58
2022-08-19T00:21:39.458Z,34.72
2022-08-19T00:24:11.982Z,34.00
2022-08-19T00:26:39.698Z,33.60
2022-08-19T00:29:08.839Z,33.58
2022-08-19T00:31:36.823Z,34.75
2022-08-19T00:34:05.195Z,34.30
2022-08-19T00:36:33.924Z,34.10
2022-08-19T00:39:01.805Z,33.30
2022-08-19T00:41:29.534Z,35.17
2022-08-19T00:48:15.109Z,35.35
2022-08-19T01:03:27.120Z,35.08
2022-08-19T01:06:01.716Z,36.25
2022-08-19T01:11:23.833Z,35.55
2022-08-19T01:13:59.822Z,35.53
2022-08-19T01:16:30.765Z,36.13
2022-08-19T01:18:59.057Z,37.60
2022-08-19T01:21:43.321Z,35.50
2022-08-19T01:24:10.471Z,36.30
2022-08-19T01:26:46.551Z,35.40
2022-08-19T01:29:15.037Z,35.28
2022-08-19T01:31:42.198Z,34.97
2022-08-19T01:34:09.431Z,35.22
2022-08-19T01:36:40.535Z,36.40
2022-08-19T01:39:12.213Z,34.00
2022-08-19T01:41:39.742Z,35.95
2022-08-19T01:44:18.370Z,34.88
2022-08-19T01:46:48.925Z,35.75
2022-08-19T01:49:17.911Z,35.47
2022-08-19T01:51:44.983Z,35.05
2022-08-19T01:54:14.372Z,36.22
2022-08-19T01:57:02.410Z,35.90
2022-08-19T01:59:30.129Z,35.63
2022-08-19T02:01:57.600Z,36.00
2022-08-19T02:04:26.493Z,36.35
2022-08-19T02:06:53.695Z,35.70
2022-08-19T02:09:20.867Z,35.53
2022-08-19T02:11:47.896Z,36.22
2022-08-19T02:14:14.963Z,36.33
2022-08-19T02:16:41.980Z,36.15
2022-08-19T02:19:09.074Z,35.72
2022-08-19T02:21:36.381Z,35.88
2022-08-19T02:24:04.000Z,37.60
2022-08-19T02:26:31.292Z,37.55
2022-08-19T02:28:58.404Z,37.55
2022-08-19T02:31:29.132Z,36.97
2022-08-19T02:33:57.394Z,37.17
2022-08-19T02:36:26.632Z,37.72
2022-08-19T02:38:55.434Z,38.80
2022-08-19T02:41:26.795Z,37.55
2022-08-19T02:44:29.623Z,37.65
2022-08-19T02:46:51.772Z,37.70
2022-08-19T02:49:20.903Z,37.93
2022-08-19T02:51:48.397Z,38.50
2022-08-19T02:54:16.227Z,38.95
2022-08-19T02:56:45.967Z,38.45
2022-08-19T02:59:13.396Z,37.75
2022-08-19T03:01:43.051Z,39.90
2022-08-19T03:04:12.405Z,39.97
2022-08-19T03:06:42.343Z,39.30
2022-08-19T03:09:10.100Z,40.97
2022-08-19T03:11:37.499Z,40.35
2022-08-19T03:14:07.176Z,41.80
2022-08-19T03:16:40.748Z,41.40
2022-08-19T03:19:07.818Z,41.72
2022-08-19T03:21:35.699Z,42.28
2022-08-19T03:24:06.858Z,41.35
2022-08-19T03:26:35.235Z,40.78
2022-08-19T03:29:06.183Z,41.83
2022-08-19T03:31:44.351Z,41.28
2022-08-19T03:34:22.814Z,40.70
2022-08-19T03:36:50.026Z,42.22
2022-08-19T03:39:17.815Z,42.22
2022-08-19T03:41:48.449Z,41.35
2022-08-19T03:44:19.463Z,41.50
2022-08-19T03:46:57.795Z,42.97
2022-08-19T03:49:28.411Z,41.42
2022-08-19T03:51:58.317Z,41.22
2022-08-19T03:54:27.436Z,41.28
2022-08-19T03:56:56.352Z,39.97
2022-08-19T03:59:31.712Z,41.67
2022-08-19T04:02:01.949Z,41.97
2022-08-19T04:04:30.057Z,41.95
2022-08-19T04:06:59.181Z,41.55
2022-08-19T04:09:27.039Z,40.55
2022-08-19T04:11:56.207Z,41.20
2022-08-19T04:14:29.888Z,40.05
2022-08-19T04:16:57.566Z,39.70
2022-08-19T04:19:24.974Z,40.85
2022-08-19T04:21:54.260Z,40.25
2022-08-19T04:24:23.087Z,40.92
2022-08-19T04:26:50.473Z,41.03
2022-08-19T04:29:23.121Z,40.17
2022-08-19T04:31:50.768Z,40.55
2022-08-19T04:34:25.098Z,41.08
2022-08-19T04:39:23.878Z,40.13
2022-08-19T04:42:10.025Z,40.30
2022-08-19T04:44:44.045Z,39.78
2022-08-19T04:47:13.611Z,39.25
2022-08-19T04:49:41.209Z,39.33
2022-08-19T04:52:09.564Z,39.90
2022-08-19T04:54:38.367Z,39.00
2022-08-19T04:57:09.673Z,39.35
2022-08-19T04:59:38.941Z,40.00
2022-08-19T05:02:08.864Z,39.25
2022-08-19T05:04:40.158Z,39.10
2022-08-19T05:07:08.873Z,39.55
2022-08-19T05:09:55.403Z,39.47
2022-08-19T05:12:24.800Z,38.78
2022-08-19T05:14:58.078Z,38.77
2022-08-19T05:17:29.035Z,38.92
2022-08-19T05:20:16.712Z,39.50
2022-08-19T05:22:45.049Z,38.83
2022-08-19T05:25:15.657Z,37.55
2022-08-19T05:27:43.523Z,39.72
2022-08-19T05:30:12.497Z,38.83
2022-08-19T05:32:40.906Z,38.22
2022-08-19T05:35:08.630Z,37.38
2022-08-19T05:37:35.665Z,37.22
2022-08-19T05:40:04.169Z,38.05
2022-08-19T05:42:31.683Z,37.22
2022-08-19T05:44:58.976Z,37.80
2022-08-19T05:47:26.190Z,37.47
2022-08-19T05:49:53.298Z,37.97
2022-08-19T05:52:25.935Z,38.13
2022-08-19T05:54:56.253Z,38.03
2022-08-19T05:57:24.729Z,37.88
2022-08-19T05:59:53.074Z,36.83
2022-08-19T06:02:26.072Z,37.30
2022-08-19T06:04:53.440Z,37.53
2022-08-19T06:07:20.719Z,37.90
2022-08-19T06:10:00.455Z,36.90
2022-08-19T06:12:36.121Z,37.67
2022-08-19T06:15:06.734Z,38.55
2022-08-19T06:17:35.893Z,38.78
2022-08-19T06:20:08.487Z,40.08
2022-08-19T06:22:40.259Z,42.38
2022-08-19T06:25:07.927Z,40.58
2022-08-19T06:27:34.954Z,41.42
2022-08-19T06:30:03.933Z,41.95
2022-08-19T06:32:31.308Z,42.83
2022-08-19T06:34:58.764Z,43.00
2022-08-19T06:37:25.873Z,42.85
2022-08-19T06:39:53.101Z,43.50
2022-08-19T06:42:22.397Z,43.47
2022-08-19T06:44:53.236Z,44.58
2022-08-19T06:47:23.063Z,43.67
2022-08-19T06:49:54.143Z,43.28
2022-08-19T06:52:21.132Z,41.70
2022-08-19T06:54:56.472Z,42.45
2022-08-19T06:57:27.880Z,43.15
2022-08-19T06:59:57.622Z,41.65
2022-08-19T07:02:27.447Z,42.13
2022-08-19T07:04:54.898Z,42.35
2022-08-19T07:07:22.529Z,42.15
2022-08-19T07:09:58.265Z,41.35
2022-08-19T07:12:36.019Z,42.88
2022-08-19T07:15:10.958Z,41.88
2022-08-19T07:17:41.810Z,41.55
2022-08-19T07:20:10.422Z,41.72
2022-08-19T07:22:39.208Z,42.13
2022-08-19T07:25:08.678Z,41.38
2022-08-19T07:27:36.101Z,39.97
2022-08-19T07:30:04.224Z,40.95
2022-08-19T07:32:32.637Z,41.40
2022-08-19T07:35:01.772Z,39.30
2022-08-19T07:37:32.980Z,38.67
2022-08-19T07:40:02.142Z,37.72
2022-08-19T07:42:30.930Z,37.83
2022-08-19T07:44:59.630Z,39.28
2022-08-19T07:47:49.529Z,38.17
2022-08-19T07:50:16.490Z,37.40
2022-08-19T07:52:45.378Z,38.13
2022-08-19T07:55:41.364Z,38.30
2022-08-19T07:58:06.107Z,38.45
2022-08-19T08:00:33.528Z,38.22
2022-08-19T08:03:00.861Z,38.80
2022-08-19T08:05:46.119Z,39.33
2022-08-19T08:08:32.371Z,39.15
2022-08-19T08:11:00.795Z,38.35
2022-08-19T08:13:29.083Z,38.55
2022-08-19T08:15:57.990Z,38.05
2022-08-19T08:18:27.486Z,36.80
2022-08-19T08:20:56.744Z,39.08
2022-08-19T08:23:26.476Z,37.28
2022-08-19T08:25:56.078Z,36.90
2022-08-19T08:28:24.171Z,36.72
2022-08-19T08:30:52.021Z,36.83
2022-08-19T08:33:34.113Z,37.10
2022-08-19T08:36:12.009Z,36.55
2022-08-19T08:38:40.823Z,36.40
2022-08-19T08:41:20.283Z,36.22
2022-08-19T08:43:52.205Z,36.97
2022-08-19T08:46:46.520Z,36.95
2022-08-19T08:49:32.891Z,36.97
2022-08-19T08:52:25.871Z,37.50
2022-08-19T08:55:10.047Z,39.40
2022-08-19T08:57:44.987Z,39.88
2022-08-19T09:00:17.839Z,41.72
2022-08-19T09:02:50.526Z,41.40
2022-08-19T09:05:25.993Z,43.30
2022-08-19T09:08:03.711Z,42.22
2022-08-19T09:10:56.624Z,42.38
2022-08-19T09:13:38.462Z,42.85
2022-08-19T09:16:08.437Z,41.85
2022-08-19T09:18:53.995Z,41.08
2022-08-19T09:21:26.010Z,40.53
2022-08-19T09:23:58.879Z,40.72
2022-08-19T09:26:35.266Z,39.38
2022-08-19T09:29:15.207Z,39.05
2022-08-19T09:31:42.457Z,39.00
2022-08-19T09:34:20.801Z,36.30
2022-08-19T09:36:54.814Z,35.38
2022-08-19T09:39:22.604Z,36.30
2022-08-19T09:41:51.166Z,35.58
2022-08-19T09:44:19.129Z,34.90
2022-08-19T09:46:48.230Z,34.58
2022-08-19T09:49:18.319Z,34.83
2022-08-19T09:51:51.231Z,34.53
2022-08-19T09:54:23.635Z,36.30
2022-08-19T09:56:52.770Z,34.60
2022-08-19T09:59:19.939Z,34.70
2022-08-19T10:01:47.106Z,35.20
2022-08-19T10:04:20.574Z,34.50
2022-08-19T10:06:53.506Z,35.72
2022-08-19T10:09:26.320Z,34.33
2022-08-19T10:12:03.425Z,35.53
2022-08-19T10:14:31.019Z,34.55
2022-08-19T10:16:59.370Z,34.13
2022-08-19T10:19:27.500Z,34.35
2022-08-19T10:21:55.899Z,34.55
2022-08-19T10:24:29.110Z,35.25
2022-08-19T10:26:59.155Z,34.05
2022-08-19T10:29:32.706Z,36.13
2022-08-19T10:32:03.327Z,34.53
2022-08-19T10:34:31.876Z,35.50
2022-08-19T10:37:00.756Z,34.33
2022-08-19T10:39:42.375Z,34.05
2022-08-19T10:42:14.502Z,33.08
2022-08-19T10:44:42.399Z,34.63
2022-08-19T10:47:17.920Z,34.30
2022-08-19T10:50:12.270Z,33.42
2022-08-19T10:52:48.946Z,33.65
2022-08-19T10:55:41.599Z,33.55
2022-08-19T10:58:13.378Z,33.63
2022-08-19T11:00:41.721Z,34.30
2022-08-19T11:03:09.519Z,33.38
2022-08-19T11:05:40.463Z,32.65
2022-08-19T11:08:23.557Z,32.05
2022-08-19T11:10:58.621Z,33.25
2022-08-19T11:13:26.176Z,33.75
2022-08-19T11:16:07.708Z,33.15
2022-08-19T11:18:44.674Z,33.17
2022-08-19T11:21:20.089Z,33.03
2022-08-19T11:23:49.480Z,33.60
2022-08-19T11:26:17.991Z,33.67
2022-08-19T11:28:45.442Z,33.20
2022-08-19T11:31:15.358Z,32.97
2022-08-19T11:33:47.633Z,33.85
2022-08-19T11:36:15.406Z,33.15
2022-08-19T11:38:43.418Z,34.30
2022-08-19T11:41:11.275Z,33.72
2022-08-19T11:43:46.562Z,33.53
2022-08-19T11:46:17.707Z,34.25
2022-08-19T11:48:49.547Z,33.83
2022-08-19T11:51:20.557Z,35.40
2022-08-19T11:53:49.872Z,37.78
2022-08-19T11:56:20.463Z,37.55
2022-08-19T11:58:49.581Z,39.33
2022-08-19T12:01:18.752Z,37.92
2022-08-19T12:03:48.038Z,38.85
2022-08-19T12:06:19.304Z,39.67
2022-08-19T12:08:47.145Z,40.47
2022-08-19T12:11:15.644Z,39.47
2022-08-19T12:13:47.010Z,39.78
2022-08-19T12:16:18.928Z,39.15
2022-08-19T12:18:47.579Z,41.92
2022-08-19T12:21:16.258Z,44.00
2022-08-19T12:23:45.904Z,42.38
2022-08-19T12:26:13.180Z,41.35
2022-08-19T12:28:40.186Z,42.65
2022-08-19T12:31:07.264Z,43.05
2022-08-19T12:33:34.563Z,42.03
2022-08-19T12:36:04.902Z,40.42
2022-08-19T12:38:33.431Z,40.08
2022-08-19T12:41:00.585Z,40.95
2022-08-19T12:43:28.334Z,41.50
2022-08-19T12:45:55.339Z,40.88
2022-08-19T12:48:34.440Z,41.08
2022-08-19T12:51:14.307Z,42.60
2022-08-19T12:53:42.038Z,44.22
2022-08-19T12:56:12.558Z,42.08
2022-08-19T12:58:40.259Z,41.65
2022-08-19T13:01:09.339Z,41.60
2022-08-19T13:03:40.347Z,41.80
2022-08-19T13:06:08.673Z,43.05
2022-08-19T13:08:35.913Z,42.20
2022-08-19T13:11:12.865Z,44.17
2022-08-19T13:13:44.903Z,42.38
2022-08-19T13:16:14.101Z,43.10
2022-08-19T13:18:42.730Z,42.35
2022-08-19T13:21:14.756Z,43.17
2022-08-19T13:23:42.691Z,42.30
2022-08-19T13:26:11.222Z,42.67
2022-08-19T13:28:57.189Z,43.72
2022-08-19T13:31:44.786Z,42.15
2022-08-19T13:34:12.523Z,43.30
2022-08-19T13:36:40.227Z,43.10
2022-08-19T13:39:09.999Z,44.10
2022-08-19T13:41:38.080Z,44.70
2022-08-19T13:44:07.440Z,44.25
2022-08-19T13:46:34.436Z,44.20
2022-08-19T13:49:01.582Z,44.67
2022-08-19T13:51:28.611Z,44.45
2022-08-19T13:53:56.364Z,43.47
2022-08-19T13:56:26.341Z,41.60
2022-08-19T13:58:54.545Z,43.10
2022-08-19T14:01:25.561Z,43.00
2022-08-19T14:03:53.814Z,40.78
2022-08-19T14:06:22.435Z,40.90
2022-08-19T14:08:50.155Z,39.80
2022-08-19T14:11:18.030Z,39.13
2022-08-19T14:13:45.203Z,40.22
2022-08-19T14:16:14.449Z,36.83
2022-08-19T14:18:42.668Z,35.63
2022-08-19T14:21:16.789Z,36.17
2022-08-19T14:23:44.237Z,36.05
2022-08-19T14:26:14.907Z,36.08
2022-08-19T14:28:42.836Z,34.13
2022-08-19T14:31:17.671Z,35.60
2022-08-19T14:33:44.751Z,33.80
2022-08-19T14:36:11.836Z,33.17
2022-08-19T14:38:39.268Z,33.03
2022-08-19T14:41:17.432Z,33.35
2022-08-19T14:43:50.875Z,33.40
2022-08-19T14:46:21.651Z,32.90
2022-08-19T14:48:51.901Z,32.70
2022-08-19T14:51:21.434Z,33.95
2022-08-19T14:53:51.640Z,33.67
2022-08-19T14:56:22.683Z,34.30
2022-08-19T14:58:52.731Z,33.83
2022-08-19T15:01:22.121Z,34.80
2022-08-19T15:03:50.213Z,35.63
2022-08-19T15:06:17.345Z,35.53
2022-08-19T15:08:45.913Z,35.15
2022-08-19T15:11:16.785Z,34.10
2022-08-19T15:13:45.351Z,33.75
2022-08-19T15:16:18.072Z,35.75
2022-08-19T15:18:46.642Z,35.45
2022-08-19T15:21:17.595Z,35.55
2022-08-19T15:23:54.826Z,35.53
2022-08-19T15:26:22.354Z,36.13
2022-08-19T15:28:49.487Z,35.03
2022-08-19T15:31:27.949Z,36.50
2022-08-19T15:33:58.561Z,34.20
2022-08-19T15:36:27.254Z,35.42
2022-08-19T15:38:55.677Z,36.17
2022-08-19T15:41:31.908Z,35.70
2022-08-19T15:44:05.011Z,34.70
2022-08-19T15:46:34.161Z,35.42
2022-08-19T15:49:01.884Z,35.50
2022-08-19T15:51:31.265Z,35.92
2022-08-19T15:54:00.261Z,34.47
2022-08-19T15:56:47.578Z,34.97
2022-08-19T15:59:46.856Z,35.70
2022-08-19T16:02:33.797Z,34.78
2022-08-19T16:05:19.568Z,34.28
2022-08-19T16:07:48.140Z,33.60
2022-08-19T16:10:26.298Z,33.95
2022-08-19T16:12:56.767Z,32.75
2022-08-19T16:15:24.853Z,33.53
2022-08-19T16:17:57.425Z,34.22
2022-08-19T16:20:27.568Z,33.45
2022-08-19T16:22:55.505Z,34.25
2022-08-19T16:25:27.678Z,34.50
2022-08-19T16:28:07.258Z,34.60
2022-08-19T16:30:37.639Z,34.88
2022-08-19T16:33:04.931Z,35.50
2022-08-19T16:35:32.282Z,35.53
2022-08-19T16:37:59.364Z,35.40
2022-08-19T16:40:26.390Z,35.10
2022-08-19T16:42:53.721Z,36.00
2022-08-19T16:45:22.018Z,36.35
2022-08-19T16:47:49.114Z,36.28
2022-08-19T16:50:22.162Z,36.00
2022-08-19T16:52:58.489Z,35.95
2022-08-19T16:55:28.077Z,35.05
2022-08-19T16:57:55.259Z,35.20
2022-08-19T17:00:22.565Z,35.10
2022-08-19T17:02:49.564Z,34.05
2022-08-19T17:05:17.067Z,34.75
2022-08-19T17:07:44.773Z,34.25
2022-08-19T17:10:11.825Z,34.88
2022-08-19T17:12:38.828Z,34.47
2022-08-19T17:15:08.359Z,33.67
2022-08-19T17:17:35.990Z,34.22
2022-08-19T17:20:03.515Z,35.40
2022-08-19T17:22:30.575Z,35.22
2022-08-19T17:24:58.496Z,35.03
2022-08-19T17:27:31.513Z,35.35
2022-08-19T17:30:00.057Z,36.03
2022-08-19T17:32:27.382Z,35.95
2022-08-19T17:34:54.473Z,36.70
2022-08-19T17:37:21.732Z,33.83
2022-08-19T17:39:49.157Z,35.47
2022-08-19T17:42:16.229Z,35.15
2022-08-19T17:44:44.858Z,35.67
2022-08-19T17:47:18.356Z,35.63
2022-08-19T17:49:45.371Z,34.55
2022-08-19T17:52:12.496Z,34.83
2022-08-19T17:54:39.506Z,35.05
2022-08-19T17:57:06.573Z,34.47
2022-08-19T17:59:33.621Z,33.28
2022-08-19T18:02:02.615Z,32.97
2022-08-19T18:04:30.967Z,34.25
2022-08-19T18:06:58.075Z,33.65
2022-08-19T18:09:27.837Z,34.63
2022-08-19T18:11:57.326Z,34.40
2022-08-19T18:14:33.386Z,34.72
2022-08-19T18:17:06.162Z,33.60
2022-08-19T18:19:41.306Z,34.05
2022-08-19T18:22:22.701Z,35.47
2022-08-19T18:24:49.990Z,35.70
2022-08-19T18:27:17.207Z,34.53
2022-08-19T18:29:45.457Z,35.25
2022-08-19T18:32:13.027Z,35.58
2022-08-19T18:34:44.233Z,34.65
2022-08-19T18:37:12.286Z,36.17
2022-08-19T18:39:57.933Z,35.90
2022-08-19T18:42:43.503Z,35.38
2022-08-19T18:45:29.208Z,36.97
2022-08-19T18:48:26.912Z,35.65
2022-08-19T18:50:59.706Z,37.47
2022-08-19T18:53:29.764Z,35.35
2022-08-19T18:55:57.900Z,35.38
2022-08-19T18:58:33.953Z,35.35
2022-08-19T19:01:13.271Z,36.20
2022-08-19T19:03:45.420Z,36.28
2022-08-19T19:06:19.152Z,35.92
2022-08-19T19:08:47.298Z,36.97
2022-08-19T19:11:19.881Z,35.25
2022-08-19T19:13:47.208Z,36.35
2022-08-19T19:16:14.197Z,36.00
2022-08-19T19:18:42.546Z,36.40
2022-08-19T19:21:10.678Z,36.42
2022-08-19T19:23:41.087Z,34.53
2022-08-19T19:26:10.663Z,35.40
2022-08-19T19:28:43.612Z,34.30
2022-08-19T19:31:17.050Z,35.53
2022-08-19T19:33:44.879Z,37.63
2022-08-19T19:36:12.850Z,35.08
2022-08-19T19:38:47.701Z,35.38
2022-08-19T19:41:18.420Z,34.50
2022-08-19T19:43:45.422Z,34.72
2022-08-19T19:46:13.976Z,35.33
2022-08-19T19:48:40.991Z,34.40
2022-08-19T19:51:08.075Z,34.67
2022-08-19T19:53:35.172Z,34.15
2022-08-19T19:56:04.391Z,33.78
2022-08-19T19:58:33.084Z,34.00
2022-08-19T20:01:09.647Z,34.40
2022-08-19T20:03:36.899Z,33.95
2022-08-19T20:06:04.032Z,34.65
2022-08-19T20:08:49.767Z,34.35
2022-08-19T20:11:32.350Z,35.50
2022-08-19T20:14:03.979Z,35.60
2022-08-19T20:16:32.021Z,34.67
2022-08-19T20:19:01.018Z,35.97
2022-08-19T20:21:32.384Z,36.88
2022-08-19T20:24:08.676Z,37.67
2022-08-19T20:26:37.440Z,37.58
2022-08-19T20:29:13.635Z,37.58
2022-08-19T20:31:58.958Z,37.50
2022-08-19T20:34:27.535Z,37.90
2022-08-19T20:36:54.613Z,37.88
2022-08-19T20:39:21.932Z,38.80
2022-08-19T20:41:49.373Z,40.33
2022-08-19T20:44:16.918Z,39.70
2022-08-19T20:46:55.644Z,39.25
2022-08-19T20:49:27.112Z,42.25
2022-08-19T20:51:55.916Z,42.08
2022-08-19T20:54:24.144Z,41.75
2022-08-19T20:56:51.872Z,41.20
2022-08-19T20:59:20.223Z,42.97
2022-08-19T21:01:47.846Z,42.25
2022-08-19T21:04:14.925Z,43.40
2022-08-19T21:06:45.306Z,43.67
2022-08-19T21:09:13.811Z,43.78
2022-08-19T21:11:41.108Z,42.83
2022-08-19T21:14:08.167Z,43.33
2022-08-19T21:16:35.411Z,43.25
2022-08-19T21:19:02.607Z,43.38
2022-08-19T21:21:29.642Z,45.50
2022-08-19T21:23:56.939Z,44.75
2022-08-19T21:26:24.487Z,46.50
2022-08-19T21:28:51.498Z,46.72
2022-08-19T21:31:18.657Z,47.17
2022-08-19T21:33:45.694Z,48.22
2022-08-19T21:36:12.826Z,48.33
2022-08-19T21:38:39.880Z,47.80
2022-08-19T21:41:07.199Z,47.35
2022-08-19T21:43:38.361Z,49.30
2022-08-19T21:46:06.357Z,49.25
2022-08-19T21:48:33.384Z,49.10
2022-08-19T21:51:00.459Z,51.47
2022-08-19T21:53:34.191Z,51.10
2022-08-19T21:58:30.495Z,50.95
2022-08-19T22:00:59.217Z,51.40
2022-08-19T22:03:27.003Z,51.00
2022-08-19T22:05:54.019Z,52.22
2022-08-19T22:08:21.090Z,52.33
2022-08-19T22:10:49.878Z,52.90
2022-08-19T22:13:18.422Z,52.40
2022-08-19T22:15:50.488Z,52.63
2022-08-19T22:18:17.847Z,53.08
2022-08-19T22:20:45.947Z,53.65
2022-08-19T22:23:12.942Z,52.88
2022-08-19T22:25:45.152Z,53.88
2022-08-19T22:28:15.011Z,54.53
2022-08-19T22:30:47.295Z,52.05
2022-08-19T22:33:19.806Z,54.88
2022-08-19T22:35:47.732Z,55.92
2022-08-19T22:38:15.234Z,54.10
2022-08-19T22:40:46.235Z,54.45
2022-08-19T22:43:20.794Z,55.67
2022-08-19T22:45:50.359Z,54.85
2022-08-19T22:48:20.308Z,56.15
2022-08-19T22:51:08.273Z,53.13
2022-08-19T22:53:37.987Z,53.60
2022-08-19T22:56:07.949Z,54.65
2022-08-19T22:58:38.422Z,53.42
2022-08-19T23:01:07.882Z,55.08
2022-08-19T23:03:35.003Z,56.65
2022-08-19T23:06:02.055Z,54.33
2022-08-19T23:08:29.197Z,52.00
2022-08-19T23:10:56.714Z,53.70
2022-08-19T23:13:24.707Z,54.05
2022-08-19T23:15:51.906Z,54.42
2022-08-19T23:18:20.194Z,53.20
2022-08-19T23:20:47.508Z,54.85
2022-08-19T23:23:19.904Z,52.90
2022-08-19T23:25:48.912Z,53.33
2022-08-19T23:28:34.437Z,53.78
2022-08-19T23:31:02.236Z,52.85
2022-08-19T23:33:50.605Z,51.55
2022-08-19T23:36:20.562Z,53.17
2022-08-19T23:38:49.399Z,51.90
2022-08-19T23:41:18.987Z,50.20
2022-08-19T23:43:46.502Z,48.92
2022-08-19T23:46:27.569Z,49.65
2022-08-19T23:48:56.386Z,46.58
2022-08-19T23:51:23.546Z,44.60
2022-08-19T23:53:50.604Z,44.65
2022-08-19T23:56:17.667Z,45.28
2022-08-19T23:58:45.334Z,44.30
